• Join FlightAware (Why Join?)
  • Login
  • US Flag 
12:07PM EST


 

Airport Tracker/Info


-or-


 

Live Flight TrackerFlight Track Log ✈ EJA831 ✈ 22-Sep-2013 ✈ KSMF - KCMA

Flight Track Log - Related Links

Times and Time Zones

All times are in EDT time to prevent confusion due to time zone crossing. See the EJA831 flight status page for this flight to view local times or setup timezone preferences in your user account.

Time Position Orientation Groundspeed Altitude Reporting Facility
EDT Latitude Longitude Course Direction KTS MPH feet Rate Location/Type
02:41PM 38.7000 -121.6000 38° Northeast 158 182 1,200  Level Northern Cal TRACON
02:42PM 38.7333 -121.5667 38° Northeast 244 281 5,100 4,260 Climbing Northern Cal TRACON
02:43PM 38.7000 -121.5000 123° Southeast 272 313 9,400 3,300 Climbing Northern Cal TRACON
02:45PM 38.5767 -121.2908 127° Southeast 306 352 16,500 2,100 Climbing Oakland Center
02:51PM 38.1740 -120.6280 127° Southeast 100 115 27,200 1,680 Climbing FlightAware
02:52PM 38.1090 -120.5630 142° Southeast 446 513 27,800 1,020 Climbing FlightAware
02:52PM 38.0480 -120.5040 143° Southeast 458 527 28,600 960 Climbing FlightAware
02:53PM 37.9830 -120.4400 142° Southeast 465 535 29,000 300 Climbing FlightAware
02:54PM 37.9200 -120.3780 142° Southeast 482 555 29,000  Level FlightAware
02:54PM 37.8570 -120.3180 143° Southeast 500 575 29,000  Level FlightAware
02:55PM 37.7920 -120.2540 142° Southeast 503 579 29,000  Level FlightAware
02:55PM 37.7290 -120.1930 143° Southeast 501 577 29,000  Level FlightAware
02:56PM 37.6640 -120.1300 142° Southeast 514 592 29,000  Level FlightAware
02:57PM 37.6010 -120.0700 143° Southeast 511 588 29,000  Level FlightAware
02:57PM 37.5340 -120.0050 142° Southeast 511 588 29,000  Level FlightAware
02:58PM 37.4740 -119.9470 142° Southeast 511 588 29,000  Level FlightAware
02:59PM 37.3650 -119.8670 150° Southeast 512 589 29,000  Level FlightAware
02:59PM 37.3000 -119.8220 151° Southeast 512 589 29,000  Level FlightAware
03:00PM 37.2360 -119.7780 151° Southeast 512 589 29,000  Level FlightAware
03:00PM 37.1730 -119.7340 151° Southeast 512 589 29,000  Level FlightAware
03:01PM 37.1090 -119.6900 151° Southeast 512 589 29,000  Level FlightAware
03:02PM 37.0460 -119.6460 151° Southeast 512 589 29,000  Level FlightAware
03:03PM 36.7656 -119.7619 151° Southeast 500 575 29,000  Level Oakland Center
03:04PM 36.6278 -119.7361 171° South 501 577 29,000  Level Oakland Center
03:05PM 36.4903 -119.7094 171° South 499 574 29,000  Level Oakland Center
03:06PM 36.3525 -119.6836 171° South 499 574 29,000  Level Oakland Center
03:07PM 36.2150 -119.6583 172° South 499 574 29,000  Level Oakland Center
03:08PM 36.0772 -119.6319 171° South 499 574 29,000  Level Oakland Center
03:09PM 35.9403 -119.6156 174° South 493 567 29,000  Level Oakland Center
03:10PM 35.7767 -119.6222 182° South 488 562 29,000 -180 Level Oakland Center
03:11PM 35.6403 -119.6036 174° South 499 574 28,700 -780 Descending Oakland Center
03:12PM 35.5064 -119.5547 163° South 499 574 27,500 -1,500 Descending Oakland Center
03:13PM 35.3758 -119.5081 164° South 491 565 25,600 -1,560 Descending Oakland Center
03:14PM 35.2511 -119.4614 163° South 475 547 24,300 -840 Descending Oakland Center
03:15PM 35.1258 -119.4181 164° South 467 537 24,000 -300 Descending Oakland Center
03:15PM 35.0533 -119.3925 164° South 461 531 23,900 -1,440 Descending Los Angeles Center
03:17PM 34.9336 -119.3500 164° South 452 520 21,800 -1,980 Descending Los Angeles Center
03:18PM 34.8183 -119.3083 163° South 439 505 19,800 -2,040 Descending Los Angeles Center
03:19PM 34.7047 -119.2692 164° South 428 493 17,700 -1,980 Descending Los Angeles Center
03:20PM 34.5961 -119.2306 164° South 422 486 15,800 -2,280 Descending Los Angeles Center
03:20PM 34.5644 -119.2183 162° South 410 472 15,200 -3,000 Descending Los Angeles Center
03:21PM 34.4675 -119.1858 165° South 404 465 12,700 -2,700 Descending Los Angeles Center
03:21PM 34.4619 -119.1836 162° South 398 458 12,500 -2,520 Descending Los Angeles Center
03:22PM 34.3733 -119.1536 164° South 359 413 10,100 -2,580 Descending Los Angeles Center
03:22PM 34.3658 -119.1494 155° Southeast 323 372 9,900 -2,040 Descending Los Angeles Center
03:23PM 34.2967 -119.1233 163° South 297 342 8,000 -2,280 Descending Los Angeles Center
03:24PM 34.2156 -119.0964 165° South 263 303 5,400 -2,280 Descending Los Angeles Center
03:24PM 34.2253 -119.0969 357° North 274 315 5,700 -1,860 Climbing Los Angeles Center
03:25PM 34.1756 -119.0625 150° Southeast 186 214 3,700 -1,980 Descending Los Angeles Center
03:25PM 34.1750 -119.0636 239° Southwest 238 274 3,700 -2,100 Level Los Angeles Center
03:26PM 34.2042 -119.0353 39° Northeast 122 140 1,400 -2,460 Descending Los Angeles Center